sensor_id;sensor_type;location;lat;lon;timestamp;P1;durP1;ratioP1;P2;durP2;ratioP2
20067;SDS011;10194;50.824;7.134;2023-04-25T00:01:33;212.70;;;191.13;;
20067;SDS011;10194;50.824;7.134;2023-04-25T00:04:01;207.90;;;186.40;;
20067;SDS011;10194;50.824;7.134;2023-04-25T00:06:27;205.90;;;184.67;;
20067;SDS011;10194;50.824;7.134;2023-04-25T00:08:55;204.20;;;182.80;;
20067;SDS011;10194;50.824;7.134;2023-04-25T00:11:21;199.77;;;178.43;;
20067;SDS011;10194;50.824;7.134;2023-04-25T00:13:48;202.20;;;180.97;;
20067;SDS011;10194;50.824;7.134;2023-04-25T00:16:15;202.90;;;182.00;;
20067;SDS011;10194;50.824;7.134;2023-04-25T00:18:42;205.93;;;184.40;;
20067;SDS011;10194;50.824;7.134;2023-04-25T00:21:08;203.77;;;182.47;;
20067;SDS011;10194;50.824;7.134;2023-04-25T00:23:34;204.53;;;183.50;;
20067;SDS011;10194;50.824;7.134;2023-04-25T00:26:01;196.13;;;175.13;;
20067;SDS011;10194;50.824;7.134;2023-04-25T00:28:27;196.10;;;174.90;;
20067;SDS011;10194;50.824;7.134;2023-04-25T00:30:53;194.57;;;173.10;;
20067;SDS011;10194;50.824;7.134;2023-04-25T00:33:19;193.00;;;169.67;;
20067;SDS011;10194;50.824;7.134;2023-04-25T00:35:44;195.73;;;168.10;;
20067;SDS011;10194;50.824;7.134;2023-04-25T00:38:10;195.43;;;173.20;;
20067;SDS011;10194;50.824;7.134;2023-04-25T00:40:36;196.20;;;171.70;;
20067;SDS011;10194;50.824;7.134;2023-04-25T00:43:02;193.53;;;167.20;;
20067;SDS011;10194;50.824;7.134;2023-04-25T00:45:28;190.07;;;164.37;;
20067;SDS011;10194;50.824;7.134;2023-04-25T00:47:55;195.57;;;165.33;;
20067;SDS011;10194;50.824;7.134;2023-04-25T00:50:21;193.33;;;166.20;;
20067;SDS011;10194;50.824;7.134;2023-04-25T00:52:48;193.40;;;161.93;;
20067;SDS011;10194;50.824;7.134;2023-04-25T00:55:14;190.43;;;161.23;;
20067;SDS011;10194;50.824;7.134;2023-04-25T00:57:40;194.17;;;156.77;;
20067;SDS011;10194;50.824;7.134;2023-04-25T01:00:07;188.93;;;151.43;;
20067;SDS011;10194;50.824;7.134;2023-04-25T01:02:35;195.20;;;151.07;;
20067;SDS011;10194;50.824;7.134;2023-04-25T01:05:01;187.13;;;152.00;;
20067;SDS011;10194;50.824;7.134;2023-04-25T01:07:28;187.93;;;148.07;;
20067;SDS011;10194;50.824;7.134;2023-04-25T01:09:54;190.37;;;147.50;;
20067;SDS011;10194;50.824;7.134;2023-04-25T01:12:20;192.80;;;147.37;;
20067;SDS011;10194;50.824;7.134;2023-04-25T01:14:46;187.27;;;141.23;;
20067;SDS011;10194;50.824;7.134;2023-04-25T01:17:12;192.43;;;141.47;;
20067;SDS011;10194;50.824;7.134;2023-04-25T01:19:38;187.20;;;139.60;;
20067;SDS011;10194;50.824;7.134;2023-04-25T01:22:04;189.60;;;138.57;;
20067;SDS011;10194;50.824;7.134;2023-04-25T01:24:33;194.33;;;140.23;;
20067;SDS011;10194;50.824;7.134;2023-04-25T01:26:59;188.33;;;138.57;;
20067;SDS011;10194;50.824;7.134;2023-04-25T01:29:27;195.27;;;141.00;;
20067;SDS011;10194;50.824;7.134;2023-04-25T01:31:53;187.57;;;138.27;;
20067;SDS011;10194;50.824;7.134;2023-04-25T01:34:19;189.33;;;139.10;;
20067;SDS011;10194;50.824;7.134;2023-04-25T01:36:47;188.87;;;140.87;;
20067;SDS011;10194;50.824;7.134;2023-04-25T01:39:15;186.93;;;139.27;;
20067;SDS011;10194;50.824;7.134;2023-04-25T01:41:42;193.50;;;141.63;;
20067;SDS011;10194;50.824;7.134;2023-04-25T01:44:08;190.73;;;141.67;;
20067;SDS011;10194;50.824;7.134;2023-04-25T01:46:34;189.03;;;143.67;;
20067;SDS011;10194;50.824;7.134;2023-04-25T01:49:00;185.93;;;145.90;;
20067;SDS011;10194;50.824;7.134;2023-04-25T01:51:27;189.73;;;147.17;;
20067;SDS011;10194;50.824;7.134;2023-04-25T01:53:53;188.37;;;147.77;;
20067;SDS011;10194;50.824;7.134;2023-04-25T01:56:20;197.17;;;148.20;;
20067;SDS011;10194;50.824;7.134;2023-04-25T01:58:46;196.37;;;149.23;;
20067;SDS011;10194;50.824;7.134;2023-04-25T02:01:11;189.40;;;147.90;;
20067;SDS011;10194;50.824;7.134;2023-04-25T02:03:37;195.10;;;150.23;;
20067;SDS011;10194;50.824;7.134;2023-04-25T02:06:03;195.37;;;154.50;;
20067;SDS011;10194;50.824;7.134;2023-04-25T02:08:29;191.17;;;152.40;;
20067;SDS011;10194;50.824;7.134;2023-04-25T02:10:56;190.57;;;146.67;;
20067;SDS011;10194;50.824;7.134;2023-04-25T02:13:22;193.33;;;147.87;;
20067;SDS011;10194;50.824;7.134;2023-04-25T02:15:48;187.90;;;144.60;;
20067;SDS011;10194;50.824;7.134;2023-04-25T02:18:14;191.93;;;143.13;;
20067;SDS011;10194;50.824;7.134;2023-04-25T02:20:41;190.00;;;145.27;;
20067;SDS011;10194;50.824;7.134;2023-04-25T02:23:08;196.20;;;143.80;;
20067;SDS011;10194;50.824;7.134;2023-04-25T02:25:34;189.13;;;142.47;;
20067;SDS011;10194;50.824;7.134;2023-04-25T02:28:00;190.20;;;140.93;;
20067;SDS011;10194;50.824;7.134;2023-04-25T02:30:25;193.30;;;145.27;;
20067;SDS011;10194;50.824;7.134;2023-04-25T02:32:51;191.90;;;143.07;;
20067;SDS011;10194;50.824;7.134;2023-04-25T02:35:17;187.40;;;145.63;;
20067;SDS011;10194;50.824;7.134;2023-04-25T02:37:43;189.93;;;146.27;;
20067;SDS011;10194;50.824;7.134;2023-04-25T02:40:09;197.93;;;150.93;;
20067;SDS011;10194;50.824;7.134;2023-04-25T02:42:35;192.80;;;153.43;;
20067;SDS011;10194;50.824;7.134;2023-04-25T02:45:01;194.40;;;157.67;;
20067;SDS011;10194;50.824;7.134;2023-04-25T02:47:27;196.97;;;153.87;;
20067;SDS011;10194;50.824;7.134;2023-04-25T02:49:53;189.63;;;160.00;;
20067;SDS011;10194;50.824;7.134;2023-04-25T02:52:19;191.40;;;150.80;;
20067;SDS011;10194;50.824;7.134;2023-04-25T02:54:46;192.10;;;155.53;;
20067;SDS011;10194;50.824;7.134;2023-04-25T02:57:12;191.67;;;162.50;;
20067;SDS011;10194;50.824;7.134;2023-04-25T02:59:37;198.93;;;170.23;;
20067;SDS011;10194;50.824;7.134;2023-04-25T03:02:03;195.93;;;164.17;;
20067;SDS011;10194;50.824;7.134;2023-04-25T03:04:29;193.47;;;161.33;;
20067;SDS011;10194;50.824;7.134;2023-04-25T03:06:55;196.17;;;170.37;;
20067;SDS011;10194;50.824;7.134;2023-04-25T03:09:20;199.53;;;173.40;;
20067;SDS011;10194;50.824;7.134;2023-04-25T03:11:46;200.70;;;170.47;;
20067;SDS011;10194;50.824;7.134;2023-04-25T03:14:12;199.53;;;172.77;;
20067;SDS011;10194;50.824;7.134;2023-04-25T03:16:38;200.60;;;173.07;;
20067;SDS011;10194;50.824;7.134;2023-04-25T03:19:04;199.93;;;178.17;;
20067;SDS011;10194;50.824;7.134;2023-04-25T03:21:31;202.73;;;180.50;;
20067;SDS011;10194;50.824;7.134;2023-04-25T03:23:58;209.07;;;186.93;;
20067;SDS011;10194;50.824;7.134;2023-04-25T03:26:25;218.80;;;196.43;;
20067;SDS011;10194;50.824;7.134;2023-04-25T03:28:51;221.53;;;199.10;;
20067;SDS011;10194;50.824;7.134;2023-04-25T03:31:16;227.10;;;203.57;;
20067;SDS011;10194;50.824;7.134;2023-04-25T03:33:42;223.63;;;200.67;;
20067;SDS011;10194;50.824;7.134;2023-04-25T03:36:08;217.10;;;195.10;;
20067;SDS011;10194;50.824;7.134;2023-04-25T03:38:34;220.77;;;198.60;;
20067;SDS011;10194;50.824;7.134;2023-04-25T03:41:00;220.17;;;198.03;;
20067;SDS011;10194;50.824;7.134;2023-04-25T03:43:27;223.67;;;201.47;;
20067;SDS011;10194;50.824;7.134;2023-04-25T03:45:52;224.87;;;202.47;;
20067;SDS011;10194;50.824;7.134;2023-04-25T03:48:18;226.80;;;204.43;;
20067;SDS011;10194;50.824;7.134;2023-04-25T03:50:46;221.17;;;198.73;;
20067;SDS011;10194;50.824;7.134;2023-04-25T03:53:12;222.40;;;199.63;;
20067;SDS011;10194;50.824;7.134;2023-04-25T03:55:38;214.03;;;192.23;;
20067;SDS011;10194;50.824;7.134;2023-04-25T03:58:04;219.93;;;197.47;;
20067;SDS011;10194;50.824;7.134;2023-04-25T04:00:30;230.93;;;207.97;;
20067;SDS011;10194;50.824;7.134;2023-04-25T04:02:55;226.90;;;204.33;;
20067;SDS011;10194;50.824;7.134;2023-04-25T04:05:21;224.60;;;202.10;;
20067;SDS011;10194;50.824;7.134;2023-04-25T04:07:48;226.77;;;203.60;;
20067;SDS011;10194;50.824;7.134;2023-04-25T04:10:14;222.73;;;199.93;;
20067;SDS011;10194;50.824;7.134;2023-04-25T04:12:39;218.03;;;195.23;;
20067;SDS011;10194;50.824;7.134;2023-04-25T04:15:05;216.50;;;194.20;;
20067;SDS011;10194;50.824;7.134;2023-04-25T04:17:32;203.50;;;180.20;;
20067;SDS011;10194;50.824;7.134;2023-04-25T04:19:58;203.87;;;180.33;;
20067;SDS011;10194;50.824;7.134;2023-04-25T04:22:24;200.60;;;172.57;;
20067;SDS011;10194;50.824;7.134;2023-04-25T04:24:51;193.47;;;165.37;;
20067;SDS011;10194;50.824;7.134;2023-04-25T04:27:17;195.93;;;168.50;;
20067;SDS011;10194;50.824;7.134;2023-04-25T04:29:44;197.53;;;165.67;;
20067;SDS011;10194;50.824;7.134;2023-04-25T04:32:11;196.57;;;163.57;;
20067;SDS011;10194;50.824;7.134;2023-04-25T04:34:38;198.83;;;164.50;;
20067;SDS011;10194;50.824;7.134;2023-04-25T04:37:04;200.63;;;166.60;;
20067;SDS011;10194;50.824;7.134;2023-04-25T04:39:32;201.80;;;172.80;;
20067;SDS011;10194;50.824;7.134;2023-04-25T04:42:00;200.23;;;165.77;;
20067;SDS011;10194;50.824;7.134;2023-04-25T04:44:27;199.53;;;166.97;;
20067;SDS011;10194;50.824;7.134;2023-04-25T04:46:53;201.70;;;160.60;;
20067;SDS011;10194;50.824;7.134;2023-04-25T04:49:19;202.50;;;161.13;;
20067;SDS011;10194;50.824;7.134;2023-04-25T04:51:46;196.13;;;150.73;;
20067;SDS011;10194;50.824;7.134;2023-04-25T04:54:12;197.97;;;152.87;;
20067;SDS011;10194;50.824;7.134;2023-04-25T04:56:38;194.00;;;150.80;;
20067;SDS011;10194;50.824;7.134;2023-04-25T04:59:04;196.83;;;151.17;;
20067;SDS011;10194;50.824;7.134;2023-04-25T05:01:29;195.07;;;148.10;;
20067;SDS011;10194;50.824;7.134;2023-04-25T05:03:55;198.53;;;151.97;;
20067;SDS011;10194;50.824;7.134;2023-04-25T05:06:25;198.33;;;158.23;;
20067;SDS011;10194;50.824;7.134;2023-04-25T05:08:54;199.30;;;156.00;;
20067;SDS011;10194;50.824;7.134;2023-04-25T05:11:21;193.57;;;149.27;;
20067;SDS011;10194;50.824;7.134;2023-04-25T05:13:48;197.77;;;148.90;;
20067;SDS011;10194;50.824;7.134;2023-04-25T05:16:15;193.07;;;148.30;;
20067;SDS011;10194;50.824;7.134;2023-04-25T05:18:41;194.00;;;150.27;;
20067;SDS011;10194;50.824;7.134;2023-04-25T05:21:07;196.07;;;149.93;;
20067;SDS011;10194;50.824;7.134;2023-04-25T05:23:33;191.63;;;150.03;;
20067;SDS011;10194;50.824;7.134;2023-04-25T05:25:59;194.07;;;146.80;;
20067;SDS011;10194;50.824;7.134;2023-04-25T05:28:25;198.80;;;149.77;;
20067;SDS011;10194;50.824;7.134;2023-04-25T05:30:51;195.13;;;144.13;;
20067;SDS011;10194;50.824;7.134;2023-04-25T05:33:17;195.80;;;149.03;;
20067;SDS011;10194;50.824;7.134;2023-04-25T05:35:43;199.37;;;143.80;;
20067;SDS011;10194;50.824;7.134;2023-04-25T05:38:09;193.83;;;145.30;;
20067;SDS011;10194;50.824;7.134;2023-04-25T05:40:35;203.43;;;146.63;;
20067;SDS011;10194;50.824;7.134;2023-04-25T05:43:01;198.53;;;154.23;;
20067;SDS011;10194;50.824;7.134;2023-04-25T05:45:27;205.20;;;153.57;;
20067;SDS011;10194;50.824;7.134;2023-04-25T05:47:53;200.17;;;149.77;;
20067;SDS011;10194;50.824;7.134;2023-04-25T05:50:18;203.90;;;155.33;;
20067;SDS011;10194;50.824;7.134;2023-04-25T05:52:44;206.57;;;151.23;;
20067;SDS011;10194;50.824;7.134;2023-04-25T05:55:10;200.53;;;156.07;;
20067;SDS011;10194;50.824;7.134;2023-04-25T05:57:36;195.90;;;154.97;;
20067;SDS011;10194;50.824;7.134;2023-04-25T06:00:01;199.73;;;150.20;;
20067;SDS011;10194;50.824;7.134;2023-04-25T06:02:28;200.87;;;159.07;;
20067;SDS011;10194;50.824;7.134;2023-04-25T06:04:54;199.47;;;156.00;;
20067;SDS011;10194;50.824;7.134;2023-04-25T06:07:20;198.20;;;157.43;;
20067;SDS011;10194;50.824;7.134;2023-04-25T06:09:46;198.47;;;164.13;;
20067;SDS011;10194;50.824;7.134;2023-04-25T06:12:11;199.27;;;159.17;;
20067;SDS011;10194;50.824;7.134;2023-04-25T06:14:37;204.23;;;176.90;;
20067;SDS011;10194;50.824;7.134;2023-04-25T06:17:03;196.77;;;174.07;;
20067;SDS011;10194;50.824;7.134;2023-04-25T06:19:33;218.27;;;195.07;;
20067;SDS011;10194;50.824;7.134;2023-04-25T06:22:00;234.23;;;210.80;;
20067;SDS011;10194;50.824;7.134;2023-04-25T06:24:27;234.43;;;211.73;;
20067;SDS011;10194;50.824;7.134;2023-04-25T06:26:53;234.93;;;211.63;;
20067;SDS011;10194;50.824;7.134;2023-04-25T06:29:19;241.43;;;218.00;;
20067;SDS011;10194;50.824;7.134;2023-04-25T06:31:45;237.47;;;214.17;;
20067;SDS011;10194;50.824;7.134;2023-04-25T06:34:11;239.40;;;216.47;;
20067;SDS011;10194;50.824;7.134;2023-04-25T06:36:37;232.10;;;209.13;;
20067;SDS011;10194;50.824;7.134;2023-04-25T06:39:03;205.13;;;183.33;;
20067;SDS011;10194;50.824;7.134;2023-04-25T06:41:28;176.33;;;141.53;;
20067;SDS011;10194;50.824;7.134;2023-04-25T06:43:54;168.87;;;124.73;;
20067;SDS011;10194;50.824;7.134;2023-04-25T06:46:20;163.33;;;111.17;;
20067;SDS011;10194;50.824;7.134;2023-04-25T06:48:46;161.80;;;101.83;;
20067;SDS011;10194;50.824;7.134;2023-04-25T06:51:12;157.57;;;101.43;;
20067;SDS011;10194;50.824;7.134;2023-04-25T06:53:38;155.43;;;98.90;;
20067;SDS011;10194;50.824;7.134;2023-04-25T06:56:05;158.33;;;107.83;;
20067;SDS011;10194;50.824;7.134;2023-04-25T06:58:31;170.53;;;125.23;;
20067;SDS011;10194;50.824;7.134;2023-04-25T07:00:57;168.23;;;123.67;;
20067;SDS011;10194;50.824;7.134;2023-04-25T07:03:23;172.13;;;123.93;;
20067;SDS011;10194;50.824;7.134;2023-04-25T07:05:49;168.17;;;125.33;;
20067;SDS011;10194;50.824;7.134;2023-04-25T07:08:15;170.57;;;125.87;;
20067;SDS011;10194;50.824;7.134;2023-04-25T07:10:42;175.13;;;126.37;;
20067;SDS011;10194;50.824;7.134;2023-04-25T07:13:07;172.63;;;124.73;;
20067;SDS011;10194;50.824;7.134;2023-04-25T07:15:33;161.87;;;107.50;;
20067;SDS011;10194;50.824;7.134;2023-04-25T07:17:59;159.10;;;108.57;;
20067;SDS011;10194;50.824;7.134;2023-04-25T07:20:25;159.27;;;112.37;;
20067;SDS011;10194;50.824;7.134;2023-04-25T07:22:52;166.90;;;117.80;;
20067;SDS011;10194;50.824;7.134;2023-04-25T07:25:18;166.73;;;119.17;;
20067;SDS011;10194;50.824;7.134;2023-04-25T07:27:45;161.03;;;113.47;;
20067;SDS011;10194;50.824;7.134;2023-04-25T07:30:10;161.27;;;112.77;;
20067;SDS011;10194;50.824;7.134;2023-04-25T07:32:37;167.63;;;116.03;;
20067;SDS011;10194;50.824;7.134;2023-04-25T07:35:03;175.30;;;128.53;;
20067;SDS011;10194;50.824;7.134;2023-04-25T07:37:30;171.40;;;134.40;;
20067;SDS011;10194;50.824;7.134;2023-04-25T07:39:55;172.47;;;136.20;;
20067;SDS011;10194;50.824;7.134;2023-04-25T07:42:21;177.67;;;146.20;;
20067;SDS011;10194;50.824;7.134;2023-04-25T07:44:47;180.93;;;159.07;;
20067;SDS011;10194;50.824;7.134;2023-04-25T07:47:13;182.20;;;160.20;;
20067;SDS011;10194;50.824;7.134;2023-04-25T07:49:38;175.33;;;141.03;;
20067;SDS011;10194;50.824;7.134;2023-04-25T07:52:05;181.77;;;155.07;;
20067;SDS011;10194;50.824;7.134;2023-04-25T07:54:31;196.87;;;175.47;;
20067;SDS011;10194;50.824;7.134;2023-04-25T07:56:57;194.63;;;173.57;;
20067;SDS011;10194;50.824;7.134;2023-04-25T07:59:23;204.30;;;181.27;;
20067;SDS011;10194;50.824;7.134;2023-04-25T08:01:49;204.47;;;182.93;;
20067;SDS011;10194;50.824;7.134;2023-04-25T08:04:15;190.00;;;168.83;;
20067;SDS011;10194;50.824;7.134;2023-04-25T08:06:41;189.37;;;168.60;;
20067;SDS011;10194;50.824;7.134;2023-04-25T08:09:08;192.73;;;171.63;;
20067;SDS011;10194;50.824;7.134;2023-04-25T08:11:35;209.73;;;188.33;;
20067;SDS011;10194;50.824;7.134;2023-04-25T08:14:02;216.50;;;194.63;;
20067;SDS011;10194;50.824;7.134;2023-04-25T08:16:28;200.83;;;179.83;;
20067;SDS011;10194;50.824;7.134;2023-04-25T08:18:53;189.13;;;168.43;;
20067;SDS011;10194;50.824;7.134;2023-04-25T08:21:19;190.13;;;169.33;;
20067;SDS011;10194;50.824;7.134;2023-04-25T08:23:45;189.20;;;168.63;;
20067;SDS011;10194;50.824;7.134;2023-04-25T08:26:11;189.37;;;165.87;;
20067;SDS011;10194;50.824;7.134;2023-04-25T08:28:37;175.47;;;142.97;;
20067;SDS011;10194;50.824;7.134;2023-04-25T08:31:03;175.60;;;145.53;;
20067;SDS011;10194;50.824;7.134;2023-04-25T08:33:29;182.93;;;154.40;;
20067;SDS011;10194;50.824;7.134;2023-04-25T08:35:55;184.73;;;161.17;;
20067;SDS011;10194;50.824;7.134;2023-04-25T08:38:21;181.77;;;159.40;;
20067;SDS011;10194;50.824;7.134;2023-04-25T08:40:49;183.60;;;161.30;;
20067;SDS011;10194;50.824;7.134;2023-04-25T08:43:18;183.47;;;153.00;;
20067;SDS011;10194;50.824;7.134;2023-04-25T08:45:45;180.83;;;158.77;;
20067;SDS011;10194;50.824;7.134;2023-04-25T08:48:12;181.00;;;154.93;;
20067;SDS011;10194;50.824;7.134;2023-04-25T08:50:43;184.63;;;163.83;;
20067;SDS011;10194;50.824;7.134;2023-04-25T08:53:27;194.03;;;173.53;;
20067;SDS011;10194;50.824;7.134;2023-04-25T08:55:56;190.23;;;169.67;;
20067;SDS011;10194;50.824;7.134;2023-04-25T08:58:24;184.90;;;163.77;;
20067;SDS011;10194;50.824;7.134;2023-04-25T09:00:50;189.70;;;169.10;;
20067;SDS011;10194;50.824;7.134;2023-04-25T09:03:17;182.47;;;160.27;;
20067;SDS011;10194;50.824;7.134;2023-04-25T09:05:43;191.37;;;170.30;;
20067;SDS011;10194;50.824;7.134;2023-04-25T09:08:10;191.50;;;170.63;;
20067;SDS011;10194;50.824;7.134;2023-04-25T09:10:36;201.70;;;180.73;;
20067;SDS011;10194;50.824;7.134;2023-04-25T09:13:06;188.33;;;167.37;;
20067;SDS011;10194;50.824;7.134;2023-04-25T09:15:47;182.87;;;162.37;;
20067;SDS011;10194;50.824;7.134;2023-04-25T09:18:36;189.13;;;168.73;;
20067;SDS011;10194;50.824;7.134;2023-04-25T09:21:06;202.30;;;181.47;;
20067;SDS011;10194;50.824;7.134;2023-04-25T09:23:46;209.40;;;188.20;;
20067;SDS011;10194;50.824;7.134;2023-04-25T09:26:17;204.23;;;182.93;;
20067;SDS011;10194;50.824;7.134;2023-04-25T09:28:45;209.30;;;187.67;;
20067;SDS011;10194;50.824;7.134;2023-04-25T09:31:20;204.27;;;183.37;;
20067;SDS011;10194;50.824;7.134;2023-04-25T09:33:58;213.07;;;191.13;;
20067;SDS011;10194;50.824;7.134;2023-04-25T09:36:27;216.57;;;195.00;;
20067;SDS011;10194;50.824;7.134;2023-04-25T09:38:54;210.47;;;189.13;;
20067;SDS011;10194;50.824;7.134;2023-04-25T09:41:24;213.23;;;192.13;;
20067;SDS011;10194;50.824;7.134;2023-04-25T09:43:50;218.43;;;196.70;;
20067;SDS011;10194;50.824;7.134;2023-04-25T09:46:16;213.87;;;192.43;;
20067;SDS011;10194;50.824;7.134;2023-04-25T09:48:49;217.67;;;195.63;;
20067;SDS011;10194;50.824;7.134;2023-04-25T09:51:16;217.87;;;196.13;;
20067;SDS011;10194;50.824;7.134;2023-04-25T09:53:45;226.97;;;204.97;;
20067;SDS011;10194;50.824;7.134;2023-04-25T09:56:15;212.33;;;190.70;;
20067;SDS011;10194;50.824;7.134;2023-04-25T09:58:41;199.33;;;178.73;;
20067;SDS011;10194;50.824;7.134;2023-04-25T10:01:08;207.97;;;186.33;;
20067;SDS011;10194;50.824;7.134;2023-04-25T10:03:37;211.33;;;190.17;;
20067;SDS011;10194;50.824;7.134;2023-04-25T10:06:08;205.23;;;184.03;;
20067;SDS011;10194;50.824;7.134;2023-04-25T10:08:38;206.10;;;184.90;;
20067;SDS011;10194;50.824;7.134;2023-04-25T10:11:06;182.10;;;160.73;;
20067;SDS011;10194;50.824;7.134;2023-04-25T10:13:33;191.10;;;170.23;;
20067;SDS011;10194;50.824;7.134;2023-04-25T10:16:03;170.00;;;143.50;;
20067;SDS011;10194;50.824;7.134;2023-04-25T10:18:30;178.97;;;148.63;;
20067;SDS011;10194;50.824;7.134;2023-04-25T10:21:01;173.90;;;145.53;;
20067;SDS011;10194;50.824;7.134;2023-04-25T10:23:30;176.67;;;155.07;;
20067;SDS011;10194;50.824;7.134;2023-04-25T10:25:57;175.03;;;147.97;;
20067;SDS011;10194;50.824;7.134;2023-04-25T10:28:24;166.90;;;135.60;;
20067;SDS011;10194;50.824;7.134;2023-04-25T10:31:03;179.03;;;157.07;;
20067;SDS011;10194;50.824;7.134;2023-04-25T10:36:07;200.70;;;179.87;;
20067;SDS011;10194;50.824;7.134;2023-04-25T10:38:37;200.03;;;179.07;;
20067;SDS011;10194;50.824;7.134;2023-04-25T10:41:07;211.67;;;189.83;;
20067;SDS011;10194;50.824;7.134;2023-04-25T10:48:45;225.90;;;203.73;;
20067;SDS011;10194;50.824;7.134;2023-04-25T10:51:18;223.43;;;201.27;;
20067;SDS011;10194;50.824;7.134;2023-04-25T10:53:48;233.83;;;211.33;;
20067;SDS011;10194;50.824;7.134;2023-04-25T10:56:29;229.40;;;206.97;;
20067;SDS011;10194;50.824;7.134;2023-04-25T10:59:12;223.00;;;200.70;;
20067;SDS011;10194;50.824;7.134;2023-04-25T11:01:44;224.73;;;202.17;;
20067;SDS011;10194;50.824;7.134;2023-04-25T11:09:53;216.00;;;194.47;;
20067;SDS011;10194;50.824;7.134;2023-04-25T11:12:19;214.10;;;192.80;;
20067;SDS011;10194;50.824;7.134;2023-04-25T11:14:45;206.50;;;184.80;;
20067;SDS011;10194;50.824;7.134;2023-04-25T11:17:11;185.47;;;164.57;;
20067;SDS011;10194;50.824;7.134;2023-04-25T11:19:36;183.17;;;156.03;;
20067;SDS011;10194;50.824;7.134;2023-04-25T11:22:02;175.70;;;140.37;;
20067;SDS011;10194;50.824;7.134;2023-04-25T11:24:32;161.90;;;115.93;;
20067;SDS011;10194;50.824;7.134;2023-04-25T11:26:59;163.30;;;126.03;;
20067;SDS011;10194;50.824;7.134;2023-04-25T11:29:29;174.63;;;135.27;;
20067;SDS011;10194;50.824;7.134;2023-04-25T11:31:57;173.27;;;143.90;;
20067;SDS011;10194;50.824;7.134;2023-04-25T11:34:24;163.67;;;129.17;;
20067;SDS011;10194;50.824;7.134;2023-04-25T11:36:51;172.37;;;142.70;;
20067;SDS011;10194;50.824;7.134;2023-04-25T11:39:18;177.43;;;142.90;;
20067;SDS011;10194;50.824;7.134;2023-04-25T11:41:45;173.97;;;148.37;;
20067;SDS011;10194;50.824;7.134;2023-04-25T11:44:12;175.23;;;143.50;;
20067;SDS011;10194;50.824;7.134;2023-04-25T11:46:42;175.50;;;145.93;;
20067;SDS011;10194;50.824;7.134;2023-04-25T11:49:08;179.20;;;159.43;;
20067;SDS011;10194;50.824;7.134;2023-04-25T11:51:52;190.43;;;170.33;;
20067;SDS011;10194;50.824;7.134;2023-04-25T11:54:18;177.10;;;151.27;;
20067;SDS011;10194;50.824;7.134;2023-04-25T11:56:45;178.90;;;153.07;;
20067;SDS011;10194;50.824;7.134;2023-04-25T11:59:11;179.87;;;154.10;;
20067;SDS011;10194;50.824;7.134;2023-04-25T12:01:38;169.30;;;139.60;;
20067;SDS011;10194;50.824;7.134;2023-04-25T12:04:16;174.70;;;148.70;;
20067;SDS011;10194;50.824;7.134;2023-04-25T12:06:43;168.30;;;138.73;;
20067;SDS011;10194;50.824;7.134;2023-04-25T12:09:13;165.17;;;129.53;;
20067;SDS011;10194;50.824;7.134;2023-04-25T12:11:53;176.63;;;139.23;;
20067;SDS011;10194;50.824;7.134;2023-04-25T12:14:24;164.83;;;125.23;;
20067;SDS011;10194;50.824;7.134;2023-04-25T12:16:52;150.50;;;103.67;;
20067;SDS011;10194;50.824;7.134;2023-04-25T12:19:21;173.63;;;127.17;;
20067;SDS011;10194;50.824;7.134;2023-04-25T12:21:47;152.47;;;106.80;;
20067;SDS011;10194;50.824;7.134;2023-04-25T12:24:15;150.37;;;103.63;;
20067;SDS011;10194;50.824;7.134;2023-04-25T12:29:33;157.57;;;114.43;;
20067;SDS011;10194;50.824;7.134;2023-04-25T12:31:59;157.53;;;114.50;;
20067;SDS011;10194;50.824;7.134;2023-04-25T12:34:26;159.17;;;114.07;;
20067;SDS011;10194;50.824;7.134;2023-04-25T12:36:53;160.07;;;109.90;;
20067;SDS011;10194;50.824;7.134;2023-04-25T12:39:24;158.67;;;106.67;;
20067;SDS011;10194;50.824;7.134;2023-04-25T12:41:52;154.87;;;96.27;;
20067;SDS011;10194;50.824;7.134;2023-04-25T12:44:19;148.77;;;93.83;;
20067;SDS011;10194;50.824;7.134;2023-04-25T12:46:46;150.03;;;94.97;;
20067;SDS011;10194;50.824;7.134;2023-04-25T12:49:12;148.10;;;89.87;;
20067;SDS011;10194;50.824;7.134;2023-04-25T12:51:38;149.73;;;92.47;;
20067;SDS011;10194;50.824;7.134;2023-04-25T12:54:05;144.73;;;89.53;;
20067;SDS011;10194;50.824;7.134;2023-04-25T12:56:32;156.67;;;92.70;;
20067;SDS011;10194;50.824;7.134;2023-04-25T12:58:58;145.43;;;88.57;;
20067;SDS011;10194;50.824;7.134;2023-04-25T13:01:24;143.57;;;86.00;;
20067;SDS011;10194;50.824;7.134;2023-04-25T13:03:51;142.97;;;87.10;;
20067;SDS011;10194;50.824;7.134;2023-04-25T13:06:18;140.47;;;81.10;;
20067;SDS011;10194;50.824;7.134;2023-04-25T13:08:45;141.80;;;82.73;;
20067;SDS011;10194;50.824;7.134;2023-04-25T13:11:11;141.03;;;82.47;;
20067;SDS011;10194;50.824;7.134;2023-04-25T13:13:37;142.13;;;84.73;;
20067;SDS011;10194;50.824;7.134;2023-04-25T13:16:04;137.70;;;79.63;;
20067;SDS011;10194;50.824;7.134;2023-04-25T13:18:30;138.70;;;81.37;;
20067;SDS011;10194;50.824;7.134;2023-04-25T13:20:57;142.10;;;86.90;;
20067;SDS011;10194;50.824;7.134;2023-04-25T13:23:24;138.10;;;81.30;;
20067;SDS011;10194;50.824;7.134;2023-04-25T13:25:52;140.67;;;85.93;;
20067;SDS011;10194;50.824;7.134;2023-04-25T13:28:19;139.63;;;85.83;;
20067;SDS011;10194;50.824;7.134;2023-04-25T13:30:44;144.10;;;89.70;;
20067;SDS011;10194;50.824;7.134;2023-04-25T13:33:12;144.80;;;91.87;;
20067;SDS011;10194;50.824;7.134;2023-04-25T13:35:37;147.87;;;92.30;;
20067;SDS011;10194;50.824;7.134;2023-04-25T13:38:04;150.43;;;97.70;;
20067;SDS011;10194;50.824;7.134;2023-04-25T13:40:30;146.87;;;100.53;;
20067;SDS011;10194;50.824;7.134;2023-04-25T13:42:56;152.13;;;103.87;;
20067;SDS011;10194;50.824;7.134;2023-04-25T13:45:22;159.73;;;121.17;;
20067;SDS011;10194;50.824;7.134;2023-04-25T13:47:48;147.83;;;103.43;;
20067;SDS011;10194;50.824;7.134;2023-04-25T13:50:14;144.10;;;94.50;;
20067;SDS011;10194;50.824;7.134;2023-04-25T13:52:41;145.30;;;95.97;;
20067;SDS011;10194;50.824;7.134;2023-04-25T13:55:07;150.80;;;106.37;;
20067;SDS011;10194;50.824;7.134;2023-04-25T13:57:34;153.63;;;107.43;;
20067;SDS011;10194;50.824;7.134;2023-04-25T14:00:01;153.10;;;107.23;;
20067;SDS011;10194;50.824;7.134;2023-04-25T14:02:33;153.50;;;113.37;;
20067;SDS011;10194;50.824;7.134;2023-04-25T14:05:06;154.10;;;104.53;;
20067;SDS011;10194;50.824;7.134;2023-04-25T14:07:36;143.20;;;94.00;;
20067;SDS011;10194;50.824;7.134;2023-04-25T14:10:02;150.87;;;108.43;;
20067;SDS011;10194;50.824;7.134;2023-04-25T14:12:30;147.03;;;101.47;;
20067;SDS011;10194;50.824;7.134;2023-04-25T14:14:57;145.33;;;92.00;;